Time;durP1;ratioP1;P1;durP2;ratioP2;P2;SDS_P1;SDS_P2;PMS_P1;PMS_P2;Temp;Humidity;BMP_temperature;BMP_pressure;BME280_temperature;BME280_humidity;BME280_pressure;Samples;Min_cycle;Max_cycle;Signal;HPM_P1;HPM_P2
2021/08/14 18:32:24;;;;;;;13.70;8.70;;;18.90;78.10;;;;;;5110680;27;20485;-49
2021/08/14 18:34:50;;;;;;;14.35;7.82;;;18.80;78.40;;;;;;5104207;28;20103;-50
2021/08/14 18:37:17;;;;;;;14.93;8.15;;;18.80;78.60;;;;;;5086261;28;20384;-51
2021/08/14 18:39:43;;;;;;;16.60;7.45;;;18.90;78.50;;;;;;5079594;28;20099;-50
2021/08/14 18:42:12;;;;;;;13.60;8.45;;;19.00;78.50;;;;;;5091539;28;20116;-50
2021/08/14 18:44:39;;;;;;;15.75;8.23;;;19.10;78.30;;;;;;5074676;28;20028;-50
2021/08/14 18:47:05;;;;;;;14.82;8.00;;;19.30;78.00;;;;;;5072672;28;20465;-50
2021/08/14 18:49:32;;;;;;;14.23;7.72;;;19.40;77.70;;;;;;5090836;28;20032;-50
2021/08/14 18:52:00;;;;;;;14.73;8.23;;;19.50;77.40;;;;;;5091013;28;20469;-50
2021/08/14 18:54:27;;;;;;;12.93;7.95;;;19.70;77.00;;;;;;5090420;28;20423;-50
2021/08/14 18:56:54;;;;;;;14.65;8.00;;;19.80;76.70;;;;;;5090547;28;20503;-50
2021/08/14 18:59:20;;;;;;;14.85;8.38;;;19.90;76.50;;;;;;5089288;28;20071;-51
2021/08/14 19:01:47;;;;;;;11.10;8.10;;;20.00;76.00;;;;;;5089790;28;20037;-50
2021/08/14 19:04:13;;;;;;;12.63;8.30;;;20.20;75.90;;;;;;5090293;28;20036;-50
2021/08/14 19:06:40;;;;;;;17.83;7.47;;;20.20;75.50;;;;;;5090325;28;20025;-50
2021/08/14 19:09:06;;;;;;;19.42;8.25;;;20.40;75.30;;;;;;5090457;28;20032;-50
2021/08/14 19:11:33;;;;;;;18.92;8.00;;;20.50;75.10;;;;;;5090121;28;20519;-50
2021/08/14 19:13:59;;;;;;;13.15;8.32;;;20.60;74.70;;;;;;5088386;28;20028;-50
2021/08/14 19:16:26;;;;;;;9.13;6.88;;;20.60;74.40;;;;;;5087986;28;20031;-50
2021/08/14 19:18:53;;;;;;;12.32;7.43;;;20.80;74.30;;;;;;5088036;28;20527;-50
2021/08/14 19:21:19;;;;;;;14.43;7.60;;;20.90;74.50;;;;;;5090475;28;20037;-50
2021/08/14 19:23:48;;;;;;;17.33;7.03;;;21.00;73.60;;;;;;5089744;28;20020;-50
2021/08/14 19:26:15;;;;;;;12.13;7.18;;;21.00;73.20;;;;;;5090283;28;20032;-50
2021/08/14 19:28:41;;;;;;;11.57;6.72;;;21.10;73.60;;;;;;5090422;28;20031;-50
2021/08/14 19:31:10;;;;;;;15.38;8.02;;;21.20;72.70;;;;;;5090147;28;20044;-50
2021/08/14 19:33:37;;;;;;;17.83;7.45;;;21.30;72.40;;;;;;5090233;28;20086;-50
2021/08/14 19:36:04;;;;;;;15.30;6.88;;;21.40;72.20;;;;;;5090521;28;20024;-50
2021/08/14 19:38:30;;;;;;;11.15;6.80;;;21.50;71.80;;;;;;5089687;28;20030;-51
2021/08/14 19:40:57;;;;;;;9.15;6.75;;;21.50;71.60;;;;;;5089414;28;20035;-50
2021/08/14 19:43:23;;;;;;;10.07;7.13;;;21.60;71.50;;;;;;5078397;28;20021;-50
2021/08/14 19:45:50;;;;;;;13.20;7.35;;;21.70;71.20;;;;;;5076255;28;20465;-50
2021/08/14 19:48:17;;;;;;;9.57;6.88;;;21.70;71.00;;;;;;5076526;28;20028;-50
2021/08/14 19:50:43;;;;;;;11.70;6.38;;;21.80;70.80;;;;;;5076378;28;20062;-50
2021/08/14 19:53:10;;;;;;;10.07;6.05;;;21.80;70.60;;;;;;5076451;28;20461;-50
2021/08/14 19:55:38;;;;;;;9.93;6.28;;;21.90;70.50;;;;;;5076359;28;20358;-50
2021/08/14 19:58:04;;;;;;;9.43;6.90;;;22.00;70.30;;;;;;5076286;28;20029;-50
2021/08/14 20:00:31;;;;;;;8.52;6.00;;;22.10;70.10;;;;;;5076231;28;20031;-50
2021/08/14 20:02:57;;;;;;;8.82;6.32;;;22.10;69.90;;;;;;5076409;28;20032;-50
2021/08/14 20:05:24;;;;;;;10.73;6.50;;;22.20;69.70;;;;;;5076469;28;20021;-50
2021/08/14 20:07:51;;;;;;;11.38;6.43;;;22.20;69.40;;;;;;5075839;28;20382;-50
2021/08/14 20:10:18;;;;;;;9.50;6.57;;;22.30;69.30;;;;;;5076251;28;20064;-50
2021/08/14 20:12:45;;;;;;;8.80;6.53;;;22.30;69.10;;;;;;5076123;28;20456;-50
2021/08/14 20:15:12;;;;;;;7.82;6.10;;;22.40;68.90;;;;;;5075993;28;20020;-50
2021/08/14 20:17:38;;;;;;;8.40;6.45;;;22.40;68.80;;;;;;5076042;28;20027;-51
2021/08/14 20:20:05;;;;;;;8.13;6.53;;;22.50;68.70;;;;;;5075959;28;20030;-50
2021/08/14 20:22:32;;;;;;;10.75;6.60;;;22.50;68.60;;;;;;5075936;28;20029;-50
2021/08/14 20:24:58;;;;;;;7.95;5.78;;;22.50;68.40;;;;;;5075765;28;20025;-51
2021/08/14 20:27:25;;;;;;;8.13;5.97;;;22.60;68.30;;;;;;5075811;28;20020;-51
2021/08/14 20:29:51;;;;;;;6.78;5.70;;;22.60;68.10;;;;;;5075744;28;20111;-51
2021/08/14 20:32:18;;;;;;;10.73;6.65;;;22.70;68.00;;;;;;5075201;28;20053;-50
2021/08/14 20:34:44;;;;;;;9.82;6.28;;;22.70;67.90;;;;;;5075966;28;20025;-51
2021/08/14 20:37:11;;;;;;;8.45;6.18;;;22.70;67.80;;;;;;5075301;28;20029;-50
2021/08/14 20:39:37;;;;;;;7.78;6.30;;;22.80;67.70;;;;;;5075548;28;20065;-50
2021/08/14 20:42:04;;;;;;;8.50;5.85;;;22.80;67.70;;;;;;5075205;28;20055;-50
2021/08/14 20:44:31;;;;;;;8.38;5.70;;;22.80;67.50;;;;;;5075373;28;20028;-50
2021/08/14 20:46:57;;;;;;;10.30;6.03;;;22.80;67.50;;;;;;5075583;28;20029;-50
2021/08/14 20:49:24;;;;;;;7.90;5.68;;;22.90;67.30;;;;;;5075319;28;20066;-51
2021/08/14 20:51:50;;;;;;;8.23;6.00;;;22.90;67.10;;;;;;5075243;28;20020;-50
2021/08/14 20:54:17;;;;;;;8.90;5.88;;;22.90;67.20;;;;;;5074041;28;20024;-51
2021/08/14 20:56:44;;;;;;;7.43;6.03;;;22.90;67.10;;;;;;5074860;28;20406;-51
2021/08/14 20:59:11;;;;;;;8.68;5.97;;;23.00;67.10;;;;;;5075145;28;20021;-51
2021/08/14 21:01:38;;;;;;;7.40;5.68;;;23.00;67.00;;;;;;5075291;28;20036;-51
2021/08/14 21:04:05;;;;;;;8.63;5.80;;;23.00;66.90;;;;;;5075079;28;20029;-51
2021/08/14 21:06:32;;;;;;;9.32;5.95;;;23.00;66.90;;;;;;5074664;28;20025;-50
2021/08/14 21:08:59;;;;;;;9.20;5.65;;;23.10;66.80;;;;;;5075450;28;20055;-51
2021/08/14 21:11:25;;;;;;;11.20;5.97;;;23.10;66.80;;;;;;5074896;28;20107;-50
2021/08/14 21:13:52;;;;;;;10.32;6.25;;;23.10;66.70;;;;;;5074527;28;20503;-51
2021/08/14 21:16:18;;;;;;;8.82;6.18;;;23.10;66.80;;;;;;5074732;28;20025;-51
2021/08/14 21:18:45;;;;;;;8.40;5.88;;;23.10;66.60;;;;;;5074924;28;20078;-51
2021/08/14 21:21:12;;;;;;;8.02;5.93;;;23.20;66.50;;;;;;5074422;28;20369;-51
2021/08/14 21:23:39;;;;;;;7.97;6.07;;;23.20;66.50;;;;;;5074897;28;20131;-51
2021/08/14 21:26:05;;;;;;;9.45;6.18;;;23.20;66.40;;;;;;5074576;28;20027;-51
2021/08/14 21:28:32;;;;;;;7.28;5.75;;;23.20;66.30;;;;;;5074513;28;20443;-51
2021/08/14 21:30:59;;;;;;;11.88;6.38;;;23.20;66.30;;;;;;5074493;28;20491;-50
2021/08/14 21:33:26;;;;;;;8.57;6.25;;;23.30;66.30;;;;;;5075024;28;20029;-51
2021/08/14 21:35:52;;;;;;;8.05;5.80;;;23.20;66.30;;;;;;5074211;28;20432;-51
2021/08/14 21:38:19;;;;;;;9.93;5.82;;;23.30;66.30;;;;;;5073519;28;20159;-51
2021/08/14 21:40:46;;;;;;;8.35;6.53;;;23.30;66.20;;;;;;5073965;28;20033;-51
2021/08/14 21:43:12;;;;;;;7.45;6.32;;;23.30;66.10;;;;;;5073257;28;20350;-51
2021/08/14 21:45:39;;;;;;;7.80;6.25;;;23.30;66.10;;;;;;5075946;28;20025;-51
2021/08/14 21:48:08;;;;;;;8.07;6.18;;;23.30;66.10;;;;;;5074346;28;20025;-51
2021/08/14 21:50:37;;;;;;;8.50;6.05;;;23.30;66.10;;;;;;5072653;28;20036;-51
2021/08/14 21:53:04;;;;;;;9.35;6.28;;;23.40;66.10;;;;;;5074329;28;20063;-51
2021/08/14 21:55:31;;;;;;;11.55;5.85;;;23.40;66.10;;;;;;5074349;28;20465;-50
2021/08/14 21:57:57;;;;;;;7.30;6.22;;;23.40;66.00;;;;;;5073549;28;20036;-51
2021/08/14 22:00:38;;;;;;;10.90;6.80;;;23.40;66.10;;;;;;5073732;28;20081;-51
2021/08/14 22:03:06;;;;;;;10.25;6.07;;;23.40;65.90;;;;;;5074062;28;20066;-51
2021/08/14 22:05:34;;;;;;;7.95;6.30;;;23.40;66.00;;;;;;5073806;28;20028;-51
2021/08/14 22:08:00;;;;;;;11.00;6.22;;;23.40;65.80;;;;;;5073715;28;20032;-51
2021/08/14 22:10:27;;;;;;;10.73;6.20;;;23.50;65.80;;;;;;5073622;28;20495;-50
2021/08/14 22:12:54;;;;;;;9.38;6.55;;;23.50;65.90;;;;;;5080803;28;20039;-51
2021/08/14 22:15:21;;;;;;;7.88;6.32;;;23.50;65.90;;;;;;5072981;28;20108;-51
2021/08/14 22:17:47;;;;;;;11.15;7.13;;;23.50;65.80;;;;;;5072284;28;20663;-51
2021/08/14 22:20:17;;;;;;;10.32;6.22;;;23.50;65.80;;;;;;5073867;28;20024;-51
2021/08/14 22:22:44;;;;;;;8.60;6.15;;;23.50;65.90;;;;;;5073451;28;20029;-51
2021/08/14 22:25:11;;;;;;;10.73;6.50;;;23.50;65.70;;;;;;5074016;28;20025;-51
2021/08/14 22:27:38;;;;;;;10.25;6.78;;;23.50;65.60;;;;;;5072508;28;20024;-51
2021/08/14 22:30:14;;;;;;;7.72;6.07;;;23.50;65.50;;;;;;5073416;28;20452;-51
2021/08/14 22:32:40;;;;;;;10.63;6.57;;;23.50;65.50;;;;;;5074344;28;20029;-51
2021/08/14 22:35:09;;;;;;;8.98;6.53;;;23.50;65.60;;;;;;5073681;28;20461;-50
2021/08/14 22:37:59;;;;;;;9.35;6.07;;;23.60;65.50;;;;;;5073585;28;20031;-51
2021/08/14 22:40:29;;;;;;;8.25;6.30;;;23.60;66.20;;;;;;5073727;28;20036;-51
2021/08/14 22:42:57;;;;;;;10.05;6.55;;;23.50;65.40;;;;;;5073725;28;20056;-51
2021/08/14 22:45:24;;;;;;;9.15;6.05;;;23.50;65.50;;;;;;5073315;28;20423;-51
2021/08/14 22:47:51;;;;;;;10.38;6.38;;;23.50;65.50;;;;;;5073561;28;20054;-50
2021/08/14 22:50:18;;;;;;;7.75;6.28;;;23.50;65.50;;;;;;5073440;28;20028;-51
2021/08/14 22:52:45;;;;;;;7.45;6.32;;;23.50;65.50;;;;;;5073458;28;20081;-51
2021/08/14 22:55:13;;;;;;;7.53;5.85;;;23.50;65.50;;;;;;5073471;28;20090;-51
2021/08/14 22:57:40;;;;;;;9.20;6.03;;;23.60;65.50;;;;;;5073221;28;20024;-50
2021/08/14 23:00:17;;;;;;;9.07;6.40;;;23.50;65.40;;;;;;5073473;28;20112;-51
2021/08/14 23:02:47;;;;;;;9.95;6.13;;;23.50;65.40;;;;;;5073794;28;20048;-51
2021/08/14 23:05:14;;;;;;;8.63;5.65;;;23.50;65.40;;;;;;5073437;28;20115;-51
2021/08/14 23:07:41;;;;;;;7.20;5.70;;;23.50;65.40;;;;;;5073407;28;20473;-51
2021/08/14 23:10:08;;;;;;;7.50;6.20;;;23.50;65.40;;;;;;5073272;28;20035;-51
2021/08/14 23:12:38;;;;;;;7.53;6.18;;;23.50;65.30;;;;;;5074125;28;20064;-51
2021/08/14 23:15:05;;;;;;;9.25;5.80;;;23.50;65.30;;;;;;5073269;28;20112;-51
2021/08/14 23:17:32;;;;;;;9.13;6.20;;;23.50;65.40;;;;;;5074154;28;20025;-51
2021/08/14 23:19:59;;;;;;;6.80;5.82;;;23.50;65.50;;;;;;5077015;28;20103;-51
2021/08/14 23:22:26;;;;;;;6.82;5.90;;;23.40;65.50;;;;;;5077168;28;20033;-50
2021/08/14 23:24:52;;;;;;;10.07;5.88;;;23.50;65.60;;;;;;5076637;28;20387;-51
2021/08/14 23:27:19;;;;;;;7.82;5.72;;;23.50;65.40;;;;;;5076903;28;20024;-51
2021/08/14 23:29:45;;;;;;;10.15;6.10;;;23.50;65.50;;;;;;5076642;28;20021;-50
2021/08/14 23:32:23;;;;;;;7.72;5.80;;;23.40;65.40;;;;;;5077074;28;20048;-51
2021/08/14 23:34:50;;;;;;;7.20;5.78;;;23.40;65.40;;;;;;5077080;28;20444;-51
2021/08/14 23:37:17;;;;;;;7.65;5.32;;;23.40;65.60;;;;;;5076463;28;20035;-51
2021/08/14 23:39:44;;;;;;;8.10;6.00;;;23.40;65.60;;;;;;5075430;28;20029;-51
2021/08/14 23:42:12;;;;;;;7.90;5.80;;;23.40;65.50;;;;;;5076656;28;20118;-50
2021/08/14 23:44:39;;;;;;;8.25;5.93;;;23.40;65.50;;;;;;5077115;28;20064;-50
2021/08/14 23:47:05;;;;;;;9.60;5.97;;;23.40;65.60;;;;;;5076197;28;20542;-51
2021/08/14 23:49:32;;;;;;;8.95;5.85;;;23.40;65.60;;;;;;5076488;28;20078;-50
2021/08/14 23:52:00;;;;;;;8.20;5.95;;;23.40;65.60;;;;;;5076347;28;20124;-50
2021/08/14 23:54:27;;;;;;;10.27;5.78;;;23.40;65.50;;;;;;5076437;28;20024;-51
2021/08/14 23:56:53;;;;;;;7.90;5.65;;;23.40;65.60;;;;;;5076343;28;20452;-51
2021/08/14 23:59:20;;;;;;;7.40;5.97;;;23.40;65.50;;;;;;5076357;28;20099;-50
